sensor_id;sensor_type;location;lat;lon;timestamp;pressure;altitude;pressure_sealevel;temperature;humidity
29417;BME280;28421;51.030;4.006;2023-10-19T00:00:57;99126.72;;;15.69;100.00
29417;BME280;28421;51.030;4.006;2023-10-19T00:03:24;99147.00;;;15.83;100.00
29417;BME280;28421;51.030;4.006;2023-10-19T00:05:49;99139.28;;;15.75;100.00
29417;BME280;28421;51.030;4.006;2023-10-19T00:08:15;99143.94;;;15.79;100.00
29417;BME280;28421;51.030;4.006;2023-10-19T00:10:52;99169.16;;;15.97;100.00
29417;BME280;28421;51.030;4.006;2023-10-19T00:13:28;99131.41;;;15.73;100.00
29417;BME280;28421;51.030;4.006;2023-10-19T00:15:55;99179.16;;;15.96;100.00
29417;BME280;28421;51.030;4.006;2023-10-19T00:18:23;99143.38;;;15.77;100.00
29417;BME280;28421;51.030;4.006;2023-10-19T00:20:51;99173.44;;;15.93;100.00
29417;BME280;28421;51.030;4.006;2023-10-19T00:23:23;99186.88;;;16.04;100.00
29417;BME280;28421;51.030;4.006;2023-10-19T00:26:00;99183.69;;;15.90;100.00
29417;BME280;28421;51.030;4.006;2023-10-19T00:28:30;99142.88;;;15.63;100.00
29417;BME280;28421;51.030;4.006;2023-10-19T00:31:00;99159.72;;;15.82;100.00
29417;BME280;28421;51.030;4.006;2023-10-19T00:33:29;99167.19;;;15.92;100.00
29417;BME280;28421;51.030;4.006;2023-10-19T00:35:59;99190.94;;;16.02;100.00
29417;BME280;28421;51.030;4.006;2023-10-19T00:38:39;99159.25;;;15.85;100.00
29417;BME280;28421;51.030;4.006;2023-10-19T00:41:09;99152.34;;;15.78;100.00
29417;BME280;28421;51.030;4.006;2023-10-19T00:43:35;99168.13;;;15.81;100.00
29417;BME280;28421;51.030;4.006;2023-10-19T00:46:15;99162.91;;;15.79;100.00
29417;BME280;28421;51.030;4.006;2023-10-19T00:48:57;99179.84;;;15.86;100.00
29417;BME280;28421;51.030;4.006;2023-10-19T00:51:31;99162.34;;;15.77;100.00
29417;BME280;28421;51.030;4.006;2023-10-19T00:54:07;99187.72;;;15.88;100.00
29417;BME280;28421;51.030;4.006;2023-10-19T00:56:37;99192.16;;;15.94;100.00
29417;BME280;28421;51.030;4.006;2023-10-19T00:59:06;99137.94;;;15.60;100.00
29417;BME280;28421;51.030;4.006;2023-10-19T01:01:40;99195.13;;;15.93;100.00
29417;BME280;28421;51.030;4.006;2023-10-19T01:04:11;99182.47;;;15.81;100.00
29417;BME280;28421;51.030;4.006;2023-10-19T01:06:45;99160.63;;;15.71;100.00
29417;BME280;28421;51.030;4.006;2023-10-19T01:09:25;99196.19;;;15.91;100.00
29417;BME280;28421;51.030;4.006;2023-10-19T01:11:53;99168.44;;;15.68;100.00
29417;BME280;28421;51.030;4.006;2023-10-19T01:14:22;99171.66;;;15.64;100.00
29417;BME280;28421;51.030;4.006;2023-10-19T01:16:53;99136.53;;;15.41;100.00
29417;BME280;28421;51.030;4.006;2023-10-19T01:19:22;99168.81;;;15.59;100.00
29417;BME280;28421;51.030;4.006;2023-10-19T01:21:49;99182.41;;;15.76;100.00
29417;BME280;28421;51.030;4.006;2023-10-19T01:24:21;99186.91;;;15.71;100.00
29417;BME280;28421;51.030;4.006;2023-10-19T01:27:06;99181.00;;;15.74;100.00
29417;BME280;28421;51.030;4.006;2023-10-19T01:29:37;99159.13;;;15.63;100.00
29417;BME280;28421;51.030;4.006;2023-10-19T01:32:06;99189.78;;;15.81;100.00
29417;BME280;28421;51.030;4.006;2023-10-19T01:34:34;99165.44;;;15.52;100.00
29417;BME280;28421;51.030;4.006;2023-10-19T01:37:00;99195.78;;;15.83;100.00
29417;BME280;28421;51.030;4.006;2023-10-19T01:39:35;99211.28;;;15.87;100.00
29417;BME280;28421;51.030;4.006;2023-10-19T01:42:02;99198.00;;;15.86;100.00
29417;BME280;28421;51.030;4.006;2023-10-19T01:44:33;99168.16;;;15.52;100.00
29417;BME280;28421;51.030;4.006;2023-10-19T01:47:01;99163.22;;;15.49;100.00
29417;BME280;28421;51.030;4.006;2023-10-19T01:49:27;99166.13;;;15.59;100.00
29417;BME280;28421;51.030;4.006;2023-10-19T01:51:53;99169.78;;;15.53;100.00
29417;BME280;28421;51.030;4.006;2023-10-19T01:54:23;99163.97;;;15.45;100.00
29417;BME280;28421;51.030;4.006;2023-10-19T01:56:55;99187.19;;;15.57;100.00
29417;BME280;28421;51.030;4.006;2023-10-19T01:59:27;99184.16;;;15.54;100.00
29417;BME280;28421;51.030;4.006;2023-10-19T02:01:54;99176.75;;;15.49;100.00
29417;BME280;28421;51.030;4.006;2023-10-19T02:04:20;99174.53;;;15.46;100.00
29417;BME280;28421;51.030;4.006;2023-10-19T02:06:47;99190.25;;;15.61;100.00
29417;BME280;28421;51.030;4.006;2023-10-19T02:09:15;99149.94;;;15.31;100.00
29417;BME280;28421;51.030;4.006;2023-10-19T02:11:50;99145.06;;;15.33;100.00
29417;BME280;28421;51.030;4.006;2023-10-19T02:14:19;99153.53;;;15.36;100.00
29417;BME280;28421;51.030;4.006;2023-10-19T02:16:50;99199.06;;;15.68;100.00
29417;BME280;28421;51.030;4.006;2023-10-19T02:19:19;99174.88;;;15.50;100.00
29417;BME280;28421;51.030;4.006;2023-10-19T02:21:49;99156.97;;;15.32;100.00
29417;BME280;28421;51.030;4.006;2023-10-19T02:24:15;99166.41;;;15.29;100.00
29417;BME280;28421;51.030;4.006;2023-10-19T02:26:41;99128.31;;;15.02;100.00
29417;BME280;28421;51.030;4.006;2023-10-19T02:29:07;99185.56;;;15.39;100.00
29417;BME280;28421;51.030;4.006;2023-10-19T02:31:35;99159.75;;;15.20;100.00
29417;BME280;28421;51.030;4.006;2023-10-19T02:34:09;99197.41;;;15.38;100.00
29417;BME280;28421;51.030;4.006;2023-10-19T02:36:36;99186.75;;;15.32;100.00
29417;BME280;28421;51.030;4.006;2023-10-19T02:39:05;99180.44;;;15.26;100.00
29417;BME280;28421;51.030;4.006;2023-10-19T02:41:38;99144.16;;;15.10;100.00
29417;BME280;28421;51.030;4.006;2023-10-19T02:44:08;99170.25;;;15.33;100.00
29417;BME280;28421;51.030;4.006;2023-10-19T02:46:35;99136.13;;;15.15;100.00
29417;BME280;28421;51.030;4.006;2023-10-19T02:49:05;99156.81;;;15.38;100.00
29417;BME280;28421;51.030;4.006;2023-10-19T02:51:41;99126.84;;;15.28;100.00
29417;BME280;28421;51.030;4.006;2023-10-19T02:54:11;99162.00;;;15.40;100.00
29417;BME280;28421;51.030;4.006;2023-10-19T02:56:43;99128.75;;;15.28;100.00
29417;BME280;28421;51.030;4.006;2023-10-19T02:59:13;99120.88;;;15.26;100.00
29417;BME280;28421;51.030;4.006;2023-10-19T03:01:42;99151.91;;;15.52;100.00
29417;BME280;28421;51.030;4.006;2023-10-19T03:04:10;99143.03;;;15.40;100.00
29417;BME280;28421;51.030;4.006;2023-10-19T03:06:38;99118.06;;;15.21;100.00
29417;BME280;28421;51.030;4.006;2023-10-19T03:09:06;99115.13;;;15.23;100.00
29417;BME280;28421;51.030;4.006;2023-10-19T03:11:52;99132.19;;;15.40;100.00
29417;BME280;28421;51.030;4.006;2023-10-19T03:14:22;99144.00;;;15.51;100.00
29417;BME280;28421;51.030;4.006;2023-10-19T03:16:51;99077.84;;;15.13;100.00
29417;BME280;28421;51.030;4.006;2023-10-19T03:19:17;99080.97;;;15.05;100.00
29417;BME280;28421;51.030;4.006;2023-10-19T03:21:42;99119.06;;;15.32;100.00
29417;BME280;28421;51.030;4.006;2023-10-19T03:24:11;99147.38;;;15.41;100.00
29417;BME280;28421;51.030;4.006;2023-10-19T03:26:52;99088.19;;;15.16;100.00
29417;BME280;28421;51.030;4.006;2023-10-19T03:29:20;99138.09;;;15.54;100.00
29417;BME280;28421;51.030;4.006;2023-10-19T03:31:56;99116.16;;;15.22;100.00
29417;BME280;28421;51.030;4.006;2023-10-19T03:34:22;99089.75;;;15.12;100.00
29417;BME280;28421;51.030;4.006;2023-10-19T03:36:49;99121.78;;;15.32;100.00
29417;BME280;28421;51.030;4.006;2023-10-19T03:39:16;99087.31;;;15.10;100.00
29417;BME280;28421;51.030;4.006;2023-10-19T03:41:45;99127.19;;;15.32;100.00
29417;BME280;28421;51.030;4.006;2023-10-19T03:44:11;99118.88;;;15.22;100.00
29417;BME280;28421;51.030;4.006;2023-10-19T03:46:53;99140.47;;;15.33;100.00
29417;BME280;28421;51.030;4.006;2023-10-19T03:49:20;99152.22;;;15.39;100.00
29417;BME280;28421;51.030;4.006;2023-10-19T03:51:46;99128.75;;;15.28;100.00
29417;BME280;28421;51.030;4.006;2023-10-19T03:54:26;99132.03;;;15.47;100.00
29417;BME280;28421;51.030;4.006;2023-10-19T03:56:53;99124.47;;;15.32;100.00
29417;BME280;28421;51.030;4.006;2023-10-19T03:59:20;99130.06;;;15.42;100.00
29417;BME280;28421;51.030;4.006;2023-10-19T04:01:46;99133.69;;;15.48;100.00
29417;BME280;28421;51.030;4.006;2023-10-19T04:04:13;99140.47;;;15.50;100.00
29417;BME280;28421;51.030;4.006;2023-10-19T04:06:39;99099.69;;;15.23;100.00
29417;BME280;28421;51.030;4.006;2023-10-19T04:09:05;99102.75;;;15.27;100.00
29417;BME280;28421;51.030;4.006;2023-10-19T04:11:34;99123.09;;;15.46;100.00
29417;BME280;28421;51.030;4.006;2023-10-19T04:14:17;99090.16;;;15.21;100.00
29417;BME280;28421;51.030;4.006;2023-10-19T04:16:45;99117.78;;;15.34;100.00
29417;BME280;28421;51.030;4.006;2023-10-19T04:19:13;99117.25;;;15.37;100.00
29417;BME280;28421;51.030;4.006;2023-10-19T04:21:40;99145.38;;;15.65;100.00
29417;BME280;28421;51.030;4.006;2023-10-19T04:24:10;99082.13;;;15.26;100.00
29417;BME280;28421;51.030;4.006;2023-10-19T04:26:37;99129.00;;;15.43;100.00
29417;BME280;28421;51.030;4.006;2023-10-19T04:29:06;99148.06;;;15.65;100.00
29417;BME280;28421;51.030;4.006;2023-10-19T04:31:38;99142.72;;;15.53;100.00
29417;BME280;28421;51.030;4.006;2023-10-19T04:34:20;99114.88;;;15.41;100.00
29417;BME280;28421;51.030;4.006;2023-10-19T04:36:47;99140.66;;;15.60;100.00
29417;BME280;28421;51.030;4.006;2023-10-19T04:39:13;99146.56;;;15.57;100.00
29417;BME280;28421;51.030;4.006;2023-10-19T04:41:39;99100.94;;;15.32;100.00
29417;BME280;28421;51.030;4.006;2023-10-19T04:44:05;99098.38;;;15.26;100.00
29417;BME280;28421;51.030;4.006;2023-10-19T04:46:33;99133.69;;;15.48;100.00
29417;BME280;28421;51.030;4.006;2023-10-19T04:48:59;99102.81;;;15.32;100.00
29417;BME280;28421;51.030;4.006;2023-10-19T04:51:25;99148.13;;;15.53;100.00
29417;BME280;28421;51.030;4.006;2023-10-19T04:53:50;99128.41;;;15.41;100.00
29417;BME280;28421;51.030;4.006;2023-10-19T04:56:16;99123.50;;;15.38;100.00
29417;BME280;28421;51.030;4.006;2023-10-19T04:58:41;99078.38;;;15.10;100.00
29417;BME280;28421;51.030;4.006;2023-10-19T05:01:07;99124.81;;;15.35;100.00
29417;BME280;28421;51.030;4.006;2023-10-19T05:03:33;99093.28;;;15.12;100.00
29417;BME280;28421;51.030;4.006;2023-10-19T05:05:59;99124.97;;;15.46;100.00
29417;BME280;28421;51.030;4.006;2023-10-19T05:08:26;99126.59;;;15.47;100.00
29417;BME280;28421;51.030;4.006;2023-10-19T05:10:54;99102.41;;;15.40;100.00
29417;BME280;28421;51.030;4.006;2023-10-19T05:13:21;99094.09;;;15.30;100.00
29417;BME280;28421;51.030;4.006;2023-10-19T05:15:46;99126.31;;;15.43;100.00
29417;BME280;28421;51.030;4.006;2023-10-19T05:18:12;99136.94;;;15.50;100.00
29417;BME280;28421;51.030;4.006;2023-10-19T05:20:38;99130.97;;;15.48;100.00
29417;BME280;28421;51.030;4.006;2023-10-19T05:23:09;99114.81;;;15.36;100.00
29417;BME280;28421;51.030;4.006;2023-10-19T05:25:35;99085.69;;;15.26;100.00
29417;BME280;28421;51.030;4.006;2023-10-19T05:28:07;99121.63;;;15.55;100.00
29417;BME280;28421;51.030;4.006;2023-10-19T05:30:35;99119.31;;;15.47;100.00
29417;BME280;28421;51.030;4.006;2023-10-19T05:33:01;99125.38;;;15.54;100.00
29417;BME280;28421;51.030;4.006;2023-10-19T05:35:28;99086.56;;;15.32;100.00
29417;BME280;28421;51.030;4.006;2023-10-19T05:37:55;99122.44;;;15.56;100.00
29417;BME280;28421;51.030;4.006;2023-10-19T05:40:25;99123.25;;;15.56;100.00
29417;BME280;28421;51.030;4.006;2023-10-19T05:42:57;99118.91;;;15.55;100.00
29417;BME280;28421;51.030;4.006;2023-10-19T05:45:24;99115.88;;;15.52;100.00
29417;BME280;28421;51.030;4.006;2023-10-19T05:47:50;99109.94;;;15.55;100.00
29417;BME280;28421;51.030;4.006;2023-10-19T05:50:15;99126.97;;;15.67;100.00
29417;BME280;28421;51.030;4.006;2023-10-19T05:52:42;99086.66;;;15.37;100.00
29417;BME280;28421;51.030;4.006;2023-10-19T05:55:11;99067.88;;;15.30;100.00
29417;BME280;28421;51.030;4.006;2023-10-19T05:57:37;99122.88;;;15.64;100.00
29417;BME280;28421;51.030;4.006;2023-10-19T06:00:14;99094.34;;;15.45;100.00
29417;BME280;28421;51.030;4.006;2023-10-19T06:02:46;99130.53;;;15.68;100.00
29417;BME280;28421;51.030;4.006;2023-10-19T06:05:15;99104.63;;;15.43;100.00
29417;BME280;28421;51.030;4.006;2023-10-19T06:07:42;99132.16;;;15.69;100.00
29417;BME280;28421;51.030;4.006;2023-10-19T06:10:11;99128.28;;;15.64;100.00
29417;BME280;28421;51.030;4.006;2023-10-19T06:12:42;99114.88;;;15.58;100.00
29417;BME280;28421;51.030;4.006;2023-10-19T06:15:08;99120.78;;;15.55;100.00
29417;BME280;28421;51.030;4.006;2023-10-19T06:17:39;99129.09;;;15.48;100.00
29417;BME280;28421;51.030;4.006;2023-10-19T06:20:09;99099.03;;;15.33;100.00
29417;BME280;28421;51.030;4.006;2023-10-19T06:22:49;99130.72;;;15.49;100.00
29417;BME280;28421;51.030;4.006;2023-10-19T06:25:19;99136.53;;;15.41;100.00
29417;BME280;28421;51.030;4.006;2023-10-19T06:27:47;99099.28;;;15.14;100.00
29417;BME280;28421;51.030;4.006;2023-10-19T06:30:13;99124.47;;;15.32;100.00
29417;BME280;28421;51.030;4.006;2023-10-19T06:32:45;99121.19;;;15.30;100.00
29417;BME280;28421;51.030;4.006;2023-10-19T06:35:11;99106.25;;;15.10;100.00
29417;BME280;28421;51.030;4.006;2023-10-19T06:37:36;99099.09;;;15.04;100.00
29417;BME280;28421;51.030;4.006;2023-10-19T06:40:02;99124.97;;;15.29;100.00
29417;BME280;28421;51.030;4.006;2023-10-19T06:42:28;99080.41;;;15.03;100.00
29417;BME280;28421;51.030;4.006;2023-10-19T06:44:53;99086.06;;;15.01;100.00
29417;BME280;28421;51.030;4.006;2023-10-19T06:47:21;99074.56;;;14.94;100.00
29417;BME280;28421;51.030;4.006;2023-10-19T06:49:48;99121.16;;;15.13;100.00
29417;BME280;28421;51.030;4.006;2023-10-19T06:52:13;99091.47;;;15.01;100.00
29417;BME280;28421;51.030;4.006;2023-10-19T06:54:41;99091.03;;;14.92;100.00
29417;BME280;28421;51.030;4.006;2023-10-19T06:57:07;99110.00;;;15.09;100.00
29417;BME280;28421;51.030;4.006;2023-10-19T06:59:35;99062.13;;;14.93;100.00
29417;BME280;28421;51.030;4.006;2023-10-19T07:02:01;99120.38;;;15.29;100.00
29417;BME280;28421;51.030;4.006;2023-10-19T07:04:28;99088.59;;;15.08;100.00
29417;BME280;28421;51.030;4.006;2023-10-19T07:06:53;99080.97;;;15.05;100.00
29417;BME280;28421;51.030;4.006;2023-10-19T07:09:19;99080.09;;;15.16;100.00
29417;BME280;28421;51.030;4.006;2023-10-19T07:11:44;99090.16;;;15.21;100.00
29417;BME280;28421;51.030;4.006;2023-10-19T07:14:11;99046.44;;;14.95;100.00
29417;BME280;28421;51.030;4.006;2023-10-19T07:16:39;99101.59;;;15.39;100.00
29417;BME280;28421;51.030;4.006;2023-10-19T07:19:06;99104.63;;;15.43;100.00
29417;BME280;28421;51.030;4.006;2023-10-19T07:21:31;99069.59;;;15.20;100.00
29417;BME280;28421;51.030;4.006;2023-10-19T07:24:01;99080.97;;;15.22;100.00
29417;BME280;28421;51.030;4.006;2023-10-19T07:26:31;99033.16;;;14.94;100.00
29417;BME280;28421;51.030;4.006;2023-10-19T07:28:59;99115.06;;;15.51;100.00
29417;BME280;28421;51.030;4.006;2023-10-19T07:31:25;99119.22;;;15.59;100.00
29417;BME280;28421;51.030;4.006;2023-10-19T07:33:53;99095.09;;;15.57;100.00
29417;BME280;28421;51.030;4.006;2023-10-19T07:36:21;99076.13;;;15.57;100.00
29417;BME280;28421;51.030;4.006;2023-10-19T07:38:46;99112.97;;;15.92;100.00
29417;BME280;28421;51.030;4.006;2023-10-19T07:41:13;99063.28;;;15.64;100.00
29417;BME280;28421;51.030;4.006;2023-10-19T07:43:39;99084.72;;;15.88;100.00
29417;BME280;28421;51.030;4.006;2023-10-19T07:46:04;99068.28;;;15.95;100.00
29417;BME280;28421;51.030;4.006;2023-10-19T07:48:30;99086.41;;;16.11;100.00
29417;BME280;28421;51.030;4.006;2023-10-19T07:50:55;99040.53;;;15.87;100.00
29417;BME280;28421;51.030;4.006;2023-10-19T07:53:22;99031.09;;;15.90;100.00
29417;BME280;28421;51.030;4.006;2023-10-19T07:55:47;99066.22;;;16.02;100.00
29417;BME280;28421;51.030;4.006;2023-10-19T07:58:12;99052.66;;;16.02;100.00
29417;BME280;28421;51.030;4.006;2023-10-19T08:00:38;99083.63;;;16.28;100.00
29417;BME280;28421;51.030;4.006;2023-10-19T08:03:05;99086.66;;;16.31;100.00
29417;BME280;28421;51.030;4.006;2023-10-19T08:05:34;99077.00;;;16.19;100.00
29417;BME280;28421;51.030;4.006;2023-10-19T08:08:00;99079.97;;;16.39;100.00
29417;BME280;28421;51.030;4.006;2023-10-19T08:10:26;99062.25;;;16.31;100.00
29417;BME280;28421;51.030;4.006;2023-10-19T08:12:52;99090.53;;;16.62;100.00
29417;BME280;28421;51.030;4.006;2023-10-19T08:15:18;99052.03;;;16.38;100.00
29417;BME280;28421;51.030;4.006;2023-10-19T08:17:48;99084.91;;;16.69;100.00
29417;BME280;28421;51.030;4.006;2023-10-19T08:20:15;99032.47;;;16.36;100.00
29417;BME280;28421;51.030;4.006;2023-10-19T08:22:52;99077.81;;;16.63;100.00
29417;BME280;28421;51.030;4.006;2023-10-19T08:25:18;99011.63;;;16.15;100.00
29417;BME280;28421;51.030;4.006;2023-10-19T08:27:45;99027.94;;;16.20;100.00
29417;BME280;28421;51.030;4.006;2023-10-19T08:30:11;99034.13;;;16.15;100.00
29417;BME280;28421;51.030;4.006;2023-10-19T08:32:41;99044.59;;;16.29;100.00
29417;BME280;28421;51.030;4.006;2023-10-19T08:35:08;99063.06;;;16.32;100.00
29417;BME280;28421;51.030;4.006;2023-10-19T08:37:38;98993.78;;;15.97;100.00
29417;BME280;28421;51.030;4.006;2023-10-19T08:40:09;99009.31;;;16.02;100.00
29417;BME280;28421;51.030;4.006;2023-10-19T08:42:40;99034.72;;;16.18;100.00
29417;BME280;28421;51.030;4.006;2023-10-19T08:45:07;99022.84;;;16.24;100.00
29417;BME280;28421;51.030;4.006;2023-10-19T08:47:36;99045.91;;;16.48;100.00
29417;BME280;28421;51.030;4.006;2023-10-19T08:50:03;98996.53;;;16.24;100.00
29417;BME280;28421;51.030;4.006;2023-10-19T08:52:30;99036.69;;;16.49;100.00
29417;BME280;28421;51.030;4.006;2023-10-19T08:54:57;99013.22;;;16.38;100.00
29417;BME280;28421;51.030;4.006;2023-10-19T08:57:23;99027.69;;;16.44;100.00
29417;BME280;28421;51.030;4.006;2023-10-19T08:59:48;99035.59;;;16.50;100.00
29417;BME280;28421;51.030;4.006;2023-10-19T09:02:14;99049.84;;;16.62;100.00
29417;BME280;28421;51.030;4.006;2023-10-19T09:04:47;99055.88;;;16.70;100.00
29417;BME280;28421;51.030;4.006;2023-10-19T09:07:13;99023.34;;;16.43;100.00
29417;BME280;28421;51.030;4.006;2023-10-19T09:09:39;99028.59;;;16.54;100.00
29417;BME280;28421;51.030;4.006;2023-10-19T09:12:09;99035.66;;;16.55;100.00
29417;BME280;28421;51.030;4.006;2023-10-19T09:14:35;99052.53;;;16.84;100.00
29417;BME280;28421;51.030;4.006;2023-10-19T09:17:02;99042.66;;;16.73;100.00
29417;BME280;28421;51.030;4.006;2023-10-19T09:19:39;99049.53;;;16.81;100.00
29417;BME280;28421;51.030;4.006;2023-10-19T09:22:05;99037.03;;;16.80;100.00
29417;BME280;28421;51.030;4.006;2023-10-19T09:24:34;99018.41;;;16.94;100.00
29417;BME280;28421;51.030;4.006;2023-10-19T09:27:02;99051.41;;;17.12;99.87
29417;BME280;28421;51.030;4.006;2023-10-19T09:29:28;99045.31;;;17.27;99.10
29417;BME280;28421;51.030;4.006;2023-10-19T09:31:55;99049.13;;;17.31;98.30
29417;BME280;28421;51.030;4.006;2023-10-19T09:34:25;99062.53;;;17.43;96.88
29417;BME280;28421;51.030;4.006;2023-10-19T09:37:00;99068.09;;;17.58;96.60
29417;BME280;28421;51.030;4.006;2023-10-19T09:39:28;99050.66;;;17.54;95.23
29417;BME280;28421;51.030;4.006;2023-10-19T09:42:07;99057.78;;;17.65;94.60
29417;BME280;28421;51.030;4.006;2023-10-19T09:44:48;99073.31;;;17.70;95.54
29417;BME280;28421;51.030;4.006;2023-10-19T09:47:34;99063.34;;;17.81;94.60
29417;BME280;28421;51.030;4.006;2023-10-19T09:50:01;99018.94;;;17.70;93.55
29417;BME280;28421;51.030;4.006;2023-10-19T09:52:28;99017.84;;;17.66;93.22
29417;BME280;28421;51.030;4.006;2023-10-19T09:55:12;99021.38;;;17.67;92.92
29417;BME280;28421;51.030;4.006;2023-10-19T09:57:50;99054.72;;;17.89;93.42
29417;BME280;28421;51.030;4.006;2023-10-19T10:00:17;99044.16;;;18.03;92.63
29417;BME280;28421;51.030;4.006;2023-10-19T10:02:52;99033.88;;;18.15;91.70
29417;BME280;28421;51.030;4.006;2023-10-19T10:08:37;99038.41;;;17.94;91.83
29417;BME280;28421;51.030;4.006;2023-10-19T10:11:33;99004.47;;;18.02;91.63
29417;BME280;28421;51.030;4.006;2023-10-19T10:13:59;99005.03;;;18.09;91.84
29417;BME280;28421;51.030;4.006;2023-10-19T10:16:26;99008.06;;;18.28;91.68
29417;BME280;28421;51.030;4.006;2023-10-19T10:18:57;99002.69;;;18.43;91.17
29417;BME280;28421;51.030;4.006;2023-10-19T10:21:27;98976.47;;;18.06;89.57
29417;BME280;28421;51.030;4.006;2023-10-19T10:23:57;99017.56;;;18.20;88.93
29417;BME280;28421;51.030;4.006;2023-10-19T10:26:29;99013.50;;;18.12;90.34
29417;BME280;28421;51.030;4.006;2023-10-19T10:29:21;99028.22;;;18.32;90.60
29417;BME280;28421;51.030;4.006;2023-10-19T10:31:48;99017.34;;;18.32;90.78
29417;BME280;28421;51.030;4.006;2023-10-19T10:37:01;98983.59;;;18.28;89.25
29417;BME280;28421;51.030;4.006;2023-10-19T10:39:28;99007.56;;;18.41;88.43
29417;BME280;28421;51.030;4.006;2023-10-19T10:42:00;99000.53;;;18.60;89.09
29417;BME280;28421;51.030;4.006;2023-10-19T10:44:39;98988.84;;;18.60;88.17
29417;BME280;28421;51.030;4.006;2023-10-19T10:47:10;98966.50;;;18.43;87.56
29417;BME280;28421;51.030;4.006;2023-10-19T10:49:58;98978.47;;;18.62;88.02
29417;BME280;28421;51.030;4.006;2023-10-19T10:52:26;98985.84;;;18.61;87.72
29417;BME280;28421;51.030;4.006;2023-10-19T10:54:52;98968.38;;;18.32;88.21
29417;BME280;28421;51.030;4.006;2023-10-19T10:57:19;98960.72;;;18.19;88.84
29417;BME280;28421;51.030;4.006;2023-10-19T10:59:45;98953.38;;;18.14;89.42
29417;BME280;28421;51.030;4.006;2023-10-19T11:02:18;98988.56;;;18.51;89.48
29417;BME280;28421;51.030;4.006;2023-10-19T11:04:44;98976.53;;;18.32;89.80
29417;BME280;28421;51.030;4.006;2023-10-19T11:07:17;98972.19;;;18.41;90.65
29417;BME280;28421;51.030;4.006;2023-10-19T11:09:44;98937.09;;;18.39;91.55
29417;BME280;28421;51.030;4.006;2023-10-19T11:12:14;98915.88;;;18.36;93.16
29417;BME280;28421;51.030;4.006;2023-10-19T11:14:57;98945.25;;;18.39;95.67
29417;BME280;28421;51.030;4.006;2023-10-19T11:17:24;98921.59;;;18.30;94.74
29417;BME280;28421;51.030;4.006;2023-10-19T11:19:56;98944.72;;;18.53;94.25
29417;BME280;28421;51.030;4.006;2023-10-19T11:22:26;98948.06;;;18.75;94.05
29417;BME280;28421;51.030;4.006;2023-10-19T11:24:53;98935.50;;;18.74;92.72
29417;BME280;28421;51.030;4.006;2023-10-19T11:27:26;98929.78;;;19.01;91.37
29417;BME280;28421;51.030;4.006;2023-10-19T11:29:54;98954.75;;;19.44;90.78
29417;BME280;28421;51.030;4.006;2023-10-19T11:32:21;98942.81;;;19.35;89.38
29417;BME280;28421;51.030;4.006;2023-10-19T11:34:53;98941.66;;;19.51;88.66
29417;BME280;28421;51.030;4.006;2023-10-19T11:37:19;98915.88;;;19.03;88.69
29417;BME280;28421;51.030;4.006;2023-10-19T11:39:45;98951.00;;;19.20;88.09
29417;BME280;28421;51.030;4.006;2023-10-19T11:42:11;98923.78;;;19.15;87.88
29417;BME280;28421;51.030;4.006;2023-10-19T11:44:38;98906.66;;;18.78;89.25
29417;BME280;28421;51.030;4.006;2023-10-19T11:47:03;98918.63;;;18.77;88.67
29417;BME280;28421;51.030;4.006;2023-10-19T11:49:29;98912.88;;;18.53;89.65
29417;BME280;28421;51.030;4.006;2023-10-19T11:51:54;98910.72;;;18.66;90.16
29417;BME280;28421;51.030;4.006;2023-10-19T11:54:20;98890.03;;;18.34;92.87
29417;BME280;28421;51.030;4.006;2023-10-19T11:56:46;98921.63;;;18.81;92.57
29417;BME280;28421;51.030;4.006;2023-10-19T11:59:11;98917.81;;;18.92;91.80
29417;BME280;28421;51.030;4.006;2023-10-19T12:01:38;98920.22;;;19.19;90.99
29417;BME280;28421;51.030;4.006;2023-10-19T12:04:04;98894.34;;;19.11;90.51
29417;BME280;28421;51.030;4.006;2023-10-19T12:06:30;98926.44;;;19.35;90.25
29417;BME280;28421;51.030;4.006;2023-10-19T12:08:56;98878.56;;;19.03;90.22
29417;BME280;28421;51.030;4.006;2023-10-19T12:11:24;98878.56;;;19.13;90.32
29417;BME280;28421;51.030;4.006;2023-10-19T12:13:50;98907.09;;;19.36;90.64
29417;BME280;28421;51.030;4.006;2023-10-19T12:16:16;98865.69;;;19.34;89.09
29417;BME280;28421;51.030;4.006;2023-10-19T12:18:42;98899.19;;;19.35;90.10
29417;BME280;28421;51.030;4.006;2023-10-19T12:21:08;98838.78;;;19.07;88.70
29417;BME280;28421;51.030;4.006;2023-10-19T12:23:43;98856.47;;;19.25;88.79
29417;BME280;28421;51.030;4.006;2023-10-19T12:26:09;98889.38;;;19.39;88.71
29417;BME280;28421;51.030;4.006;2023-10-19T12:28:39;98888.09;;;19.06;89.45
29417;BME280;28421;51.030;4.006;2023-10-19T12:31:04;98872.06;;;19.04;89.40
29417;BME280;28421;51.030;4.006;2023-10-19T12:33:35;98833.72;;;18.75;90.11
29417;BME280;28421;51.030;4.006;2023-10-19T12:36:01;98873.13;;;19.03;90.62
29417;BME280;28421;51.030;4.006;2023-10-19T12:38:27;98888.91;;;19.17;90.17
29417;BME280;28421;51.030;4.006;2023-10-19T12:40:52;98857.63;;;18.94;89.99
29417;BME280;28421;51.030;4.006;2023-10-19T12:43:19;98845.38;;;18.86;89.30
29417;BME280;28421;51.030;4.006;2023-10-19T12:45:48;98849.75;;;18.77;90.38
29417;BME280;28421;51.030;4.006;2023-10-19T12:48:19;98819.53;;;18.63;90.03
29417;BME280;28421;51.030;4.006;2023-10-19T12:50:46;98814.91;;;18.84;89.10
29417;BME280;28421;51.030;4.006;2023-10-19T12:53:11;98806.16;;;18.92;89.47
29417;BME280;28421;51.030;4.006;2023-10-19T12:55:37;98793.25;;;19.23;88.46
29417;BME280;28421;51.030;4.006;2023-10-19T12:58:04;98802.69;;;19.46;88.35
29417;BME280;28421;51.030;4.006;2023-10-19T13:00:37;98809.41;;;19.69;86.20
29417;BME280;28421;51.030;4.006;2023-10-19T13:03:10;98841.34;;;20.08;85.44
29417;BME280;28421;51.030;4.006;2023-10-19T13:05:40;98817.66;;;20.03;83.54
29417;BME280;28421;51.030;4.006;2023-10-19T13:08:10;98782.78;;;19.95;83.14